Clarksville, TN (37043)

3:30 AM CST on December 19, 2014 (GMT -0600)
South Sango | Change Station
CLOSE
Current Station
Personal Weather Station
Location: Clarksville, TN
Elevation: 604 ft
Nearby Weather Stations

Elev 604 ft 36.43 °N, 87.26 °W | Updated 13 minutes ago

Overcast
Overcast
33.4 °F
Feels Like 33 °F
N
0.0
Wind Variable Wind from NW

Today
High -- | Low -- °F
--% Chance of Precip.
Yesterday
High -- | Low -- °F
Precip. -- in
6:55 AM 4:36 PM
Waning Crescent, 9% visible
Pressure 30.26 in
Visibility 10.0 miles
Clouds Overcast 5000 ft
Windchill 33 °F
Dew Point 31 °F
Humidity 92%
Rainfall 0.00 in
Snow Depth Not available.
UV 0 out of 12
Pollen .10 out of 12
Air Quality Not available.
Flu Activity Not available.
METAR KHOP 190858Z AUTO 01005KT 10SM OVC050 01/M02 A3024 RMK AO2 SLP247 T00071017 58003

More Conditions Fewer Conditions

Pressure 30.26 in
Visibility 10.0 miles
Clouds Overcast 5000 ft
Windchill 33 °F
Dew Point 31 °F
Humidity 92%
Rainfall 0.00 in
Snow Depth Not available.
UV 0 out of 12
Pollen .10 out of 12
Air Quality Not available.
Flu Activity Not available.
METAR KHOP 190858Z AUTO 01005KT 10SM OVC050 01/M02 A3024 RMK AO2 SLP247 T00071017 58003

More Conditions Fewer Conditions

10-Day Weather Forecast

Almanac

Astronomy

Dec. 19, 2014 Rise Set
Actual Time
Civil Twilight
Nautical Twilight
Astronomical Twilight
Moon
Length of Visible Light
Length of Day
Tomorrow will be .
, % of the Moon is Illuminated

Today's Extremes

State Highs State Lows

Community

WunderPhotos

Upload Photos

1,778,966 photos uploaded!

WunderBlogs® & News

Nearby

Air Quality

  Air Quality AQ Index Pollutant
Not available.

Snow Depth

Station Depth Elevation

Earthquake Activity

City Distance Mag. Time & Date
Minimum magnitude displayed is 2.5.

Coastal Water Temperatures

Place Temperature

Nearby Weather Stations